Terminal Aerodrome Forecast
Issued by NWS

Home | Current Version | Previous Version | Text Only | Print | Product List | Glossary On
Versions: 1 2 3 4 5 6 7 8 9 10 11 12 13 14
000
FTUS46 KMTR 022324
TAFSTS
TAF
KSTS 022324Z 0300/0324 19012KT P6SM SCT200
     FM030500 VRB03KT P6SM FEW015 SCT200
     FM030800 17003KT P6SM BKN012
     FM031200 VRB03KT P6SM OVC008
     FM031600 19004KT P6SM BKN150
     FM032100 19009KT P6SM BKN200=

USA.gov is the U.S. government's official web portal to all federal, state and local government web resources and services.